createdAt,value
2022-09-06T00:00:32.600Z,19.90
2022-09-06T00:03:01.220Z,20.00
2022-09-06T00:05:30.419Z,19.90
2022-09-06T00:08:00.680Z,19.90
2022-09-06T00:10:30.230Z,19.90
2022-09-06T00:13:04.013Z,19.80
2022-09-06T00:15:32.766Z,19.80
2022-09-06T00:18:02.112Z,19.70
2022-09-06T00:20:31.780Z,19.70
2022-09-06T00:23:01.649Z,19.70
2022-09-06T00:25:30.858Z,19.70
2022-09-06T00:28:01.960Z,19.70
2022-09-06T00:30:33.490Z,19.70
2022-09-06T00:33:01.724Z,19.80
2022-09-06T00:35:30.879Z,19.80
2022-09-06T00:37:59.668Z,19.90
2022-09-06T00:40:29.507Z,19.90
2022-09-06T00:42:58.459Z,20.00
2022-09-06T00:45:29.058Z,20.10
2022-09-06T00:48:00.906Z,20.10
2022-09-06T00:50:30.851Z,20.20
2022-09-06T00:52:59.361Z,20.20
2022-09-06T00:55:28.243Z,20.20
2022-09-06T00:57:57.548Z,20.10
2022-09-06T01:00:25.929Z,19.90
2022-09-06T01:02:55.348Z,19.80
2022-09-06T01:05:32.993Z,19.80
2022-09-06T01:08:08.796Z,19.70
2022-09-06T01:10:52.199Z,19.60
2022-09-06T01:13:34.407Z,19.60
2022-09-06T01:16:13.232Z,19.60
2022-09-06T01:19:08.911Z,19.70
2022-09-06T01:21:46.863Z,19.60
2022-09-06T01:24:47.721Z,19.60
2022-09-06T01:27:55.044Z,19.50
2022-09-06T01:30:23.712Z,19.40
2022-09-06T01:32:57.958Z,19.40
2022-09-06T01:35:32.197Z,19.30
2022-09-06T01:38:01.863Z,19.20
2022-09-06T01:40:30.688Z,19.00
2022-09-06T01:43:00.680Z,18.90
2022-09-06T01:45:40.412Z,18.90
2022-09-06T01:48:18.125Z,18.90
2022-09-06T01:51:00.030Z,19.00
2022-09-06T01:53:49.781Z,19.00
2022-09-06T01:56:30.491Z,19.00
2022-09-06T01:59:19.060Z,19.00
2022-09-06T02:01:55.783Z,19.00
2022-09-06T02:04:28.864Z,19.00
2022-09-06T02:07:01.352Z,19.10
2022-09-06T02:09:36.260Z,19.10
2022-09-06T02:12:06.992Z,19.00
2022-09-06T02:14:42.179Z,19.00
2022-09-06T02:17:14.619Z,19.10
2022-09-06T02:19:47.316Z,19.10
2022-09-06T02:22:19.824Z,19.20
2022-09-06T02:24:50.587Z,19.20
2022-09-06T02:27:19.005Z,19.30
2022-09-06T02:29:49.057Z,19.30
2022-09-06T02:32:21.198Z,19.40
2022-09-06T02:34:50.338Z,19.30
2022-09-06T02:37:19.397Z,19.10
2022-09-06T02:39:47.854Z,18.80
2022-09-06T02:42:18.528Z,18.50
2022-09-06T02:44:49.280Z,18.20
2022-09-06T02:47:17.904Z,17.90
2022-09-06T02:49:46.297Z,17.80
2022-09-06T02:52:14.840Z,17.50
2022-09-06T02:54:43.278Z,17.40
2022-09-06T02:57:11.740Z,17.30
2022-09-06T02:59:43.084Z,17.30
2022-09-06T03:02:13.074Z,17.20
2022-09-06T03:04:41.653Z,17.20
2022-09-06T03:07:10.076Z,17.20
2022-09-06T03:09:38.603Z,17.30
2022-09-06T03:12:07.273Z,17.40
2022-09-06T03:14:37.337Z,17.50
2022-09-06T03:17:06.037Z,17.60
2022-09-06T03:19:36.094Z,17.60
2022-09-06T03:22:04.609Z,17.70
2022-09-06T03:24:33.022Z,17.70
2022-09-06T03:27:01.381Z,17.80
2022-09-06T03:29:29.863Z,17.80
2022-09-06T03:31:58.343Z,17.80
2022-09-06T03:34:26.799Z,17.90
2022-09-06T03:36:56.706Z,17.80
2022-09-06T03:39:25.272Z,17.70
2022-09-06T03:41:53.761Z,17.60
2022-09-06T03:44:22.094Z,17.50
2022-09-06T03:46:51.737Z,17.40
2022-09-06T03:49:20.123Z,17.30
2022-09-06T03:51:48.481Z,17.30
2022-09-06T03:54:18.276Z,17.20
2022-09-06T03:56:46.574Z,17.20
2022-09-06T03:59:14.936Z,17.20
2022-09-06T04:01:43.434Z,17.20
2022-09-06T04:04:11.886Z,17.20
2022-09-06T04:06:40.193Z,17.20
2022-09-06T04:09:08.546Z,17.20
2022-09-06T04:11:38.658Z,17.20
2022-09-06T04:14:07.031Z,17.30
2022-09-06T04:16:35.602Z,17.40
2022-09-06T04:19:04.607Z,17.50
2022-09-06T04:21:33.025Z,17.60
2022-09-06T04:24:01.395Z,17.70
2022-09-06T04:26:29.764Z,17.80
2022-09-06T04:28:59.684Z,17.90
2022-09-06T04:31:28.309Z,17.90
2022-09-06T04:33:56.829Z,17.80
2022-09-06T04:36:25.350Z,17.80
2022-09-06T04:38:54.840Z,17.70
2022-09-06T04:41:24.378Z,17.60
2022-09-06T04:43:52.737Z,17.50
2022-09-06T04:46:25.376Z,17.40
2022-09-06T04:48:54.772Z,17.40
2022-09-06T04:51:23.778Z,17.40
2022-09-06T04:53:52.791Z,17.40
2022-09-06T04:56:23.255Z,17.40
2022-09-06T04:58:54.476Z,17.40
2022-09-06T05:01:26.350Z,17.40
2022-09-06T05:03:56.879Z,17.50
2022-09-06T05:06:26.628Z,17.50
2022-09-06T05:08:54.950Z,17.50
2022-09-06T05:11:23.571Z,17.50
2022-09-06T05:13:52.135Z,17.50
2022-09-06T05:16:20.707Z,17.40
2022-09-06T05:18:50.701Z,17.30
2022-09-06T05:21:19.175Z,17.30
2022-09-06T05:23:48.361Z,17.20
2022-09-06T05:26:16.757Z,17.20
2022-09-06T05:28:45.162Z,17.20
2022-09-06T05:31:24.850Z,17.10
2022-09-06T05:33:55.622Z,17.10
2022-09-06T05:36:24.914Z,17.00
2022-09-06T05:38:53.864Z,17.00
2022-09-06T05:41:23.241Z,17.00
2022-09-06T05:43:51.882Z,17.10
2022-09-06T05:46:20.463Z,17.00
2022-09-06T05:48:55.485Z,17.00
2022-09-06T05:51:24.278Z,17.00
2022-09-06T05:53:52.593Z,17.00
2022-09-06T05:56:22.331Z,17.10
2022-09-06T05:58:50.675Z,17.20
2022-09-06T06:01:21.006Z,17.30
2022-09-06T06:03:54.913Z,17.30
2022-09-06T06:06:24.069Z,17.40
2022-09-06T06:08:52.369Z,17.40
2022-09-06T06:11:21.667Z,17.40
2022-09-06T06:13:50.708Z,17.50
2022-09-06T06:16:20.929Z,17.50
2022-09-06T06:18:52.199Z,17.50
2022-09-06T06:21:24.657Z,17.50
2022-09-06T06:23:55.495Z,17.50
2022-09-06T06:26:24.410Z,17.50
2022-09-06T06:28:53.406Z,17.50
2022-09-06T06:31:22.798Z,17.50
2022-09-06T06:33:51.612Z,17.50
2022-09-06T06:36:25.632Z,17.50
2022-09-06T06:38:56.194Z,17.50
2022-09-06T06:41:27.218Z,17.50
2022-09-06T06:43:56.300Z,17.50
2022-09-06T06:46:26.728Z,17.50
2022-09-06T06:48:56.033Z,17.50
2022-09-06T06:51:28.367Z,17.60
2022-09-06T06:53:57.951Z,17.60
2022-09-06T06:56:28.699Z,17.60
2022-09-06T06:58:59.097Z,17.60
2022-09-06T07:01:29.283Z,17.60
2022-09-06T07:03:58.325Z,17.70
2022-09-06T07:09:19.135Z,17.80
2022-09-06T07:11:48.826Z,17.90
2022-09-06T07:14:17.472Z,17.90
2022-09-06T07:16:46.001Z,17.90
2022-09-06T07:22:05.783Z,17.90
2022-09-06T07:24:34.994Z,17.90
2022-09-06T07:29:51.549Z,17.90
2022-09-06T07:32:19.867Z,18.00
2022-09-06T07:34:48.186Z,18.00
2022-09-06T07:37:18.125Z,18.10
2022-09-06T07:39:46.488Z,18.20
2022-09-06T07:42:16.237Z,18.40
2022-09-06T07:44:44.549Z,18.50
2022-09-06T07:53:11.869Z,21.10
2022-09-06T07:55:42.289Z,22.20
2022-09-06T07:58:11.103Z,23.00
2022-09-06T08:00:41.371Z,23.70
2022-09-06T08:03:10.295Z,24.80
2022-09-06T08:11:16.784Z,26.30
2022-09-06T08:13:45.715Z,26.40
2022-09-06T08:16:15.620Z,26.50
2022-09-06T08:18:44.687Z,26.30
2022-09-06T08:21:14.609Z,25.80
2022-09-06T08:23:47.661Z,25.80
2022-09-06T08:26:16.549Z,26.10
2022-09-06T08:28:44.880Z,26.70
2022-09-06T08:31:14.656Z,26.80
2022-09-06T08:33:43.754Z,26.60
2022-09-06T08:36:13.011Z,26.80
2022-09-06T08:38:41.472Z,26.60
2022-09-06T08:41:13.424Z,26.50
2022-09-06T08:43:50.524Z,26.50
2022-09-06T08:46:20.430Z,26.60
2022-09-06T08:48:48.863Z,26.60
2022-09-06T08:52:00.138Z,26.50
2022-09-06T08:54:36.529Z,26.70
2022-09-06T08:57:15.848Z,26.90
2022-09-06T08:59:44.338Z,26.60
2022-09-06T09:02:15.718Z,26.90
2022-09-06T09:04:52.095Z,27.10
2022-09-06T09:07:45.074Z,27.10
2022-09-06T09:10:21.702Z,27.30
2022-09-06T09:12:52.001Z,27.70
2022-09-06T09:15:21.778Z,27.40
2022-09-06T09:17:52.841Z,27.30
2022-09-06T09:20:22.396Z,27.70
2022-09-06T09:22:51.026Z,28.20
2022-09-06T09:25:23.590Z,28.60
2022-09-06T09:27:57.771Z,29.60
2022-09-06T09:33:28.191Z,30.40
2022-09-06T09:35:57.609Z,30.40
2022-09-06T09:38:29.116Z,29.90
2022-09-06T09:40:59.504Z,30.10
2022-09-06T09:43:32.721Z,31.50
2022-09-06T09:46:16.273Z,32.40
2022-09-06T09:48:49.743Z,32.60
2022-09-06T09:51:26.714Z,32.30
2022-09-06T09:53:56.926Z,33.00
2022-09-06T09:56:48.440Z,32.10
2022-09-06T09:59:25.114Z,31.40
2022-09-06T10:01:56.771Z,30.50
2022-09-06T10:04:47.207Z,30.50
2022-09-06T10:07:18.062Z,30.70
2022-09-06T10:09:48.842Z,30.80
2022-09-06T10:12:29.174Z,30.10
2022-09-06T10:15:01.240Z,29.60
2022-09-06T10:17:34.365Z,29.00
2022-09-06T10:20:05.904Z,28.90
2022-09-06T10:22:41.873Z,28.90
2022-09-06T10:25:38.626Z,28.40
2022-09-06T10:28:24.821Z,28.10
2022-09-06T10:31:18.779Z,28.00
2022-09-06T10:33:59.329Z,27.80
2022-09-06T10:36:34.063Z,27.60
2022-09-06T10:39:06.341Z,27.60
2022-09-06T10:41:45.489Z,27.60
2022-09-06T10:44:30.514Z,27.40
2022-09-06T10:47:11.677Z,27.40
2022-09-06T10:49:41.821Z,27.50
2022-09-06T10:52:15.625Z,27.70
2022-09-06T10:54:47.326Z,28.00
2022-09-06T11:00:13.934Z,28.30
2022-09-06T11:05:42.694Z,28.30
2022-09-06T11:11:11.181Z,28.00
2022-09-06T11:13:40.080Z,27.80
2022-09-06T11:16:12.937Z,27.70
2022-09-06T11:18:49.286Z,27.70
2022-09-06T11:21:40.829Z,27.70
2022-09-06T11:24:13.735Z,27.70
2022-09-06T11:26:46.081Z,27.70
2022-09-06T11:29:22.323Z,27.80
2022-09-06T11:34:54.858Z,27.90
2022-09-06T11:37:29.275Z,28.10
2022-09-06T11:43:15.876Z,28.50
2022-09-06T11:45:47.683Z,28.90
2022-09-06T11:49:02.656Z,29.20
2022-09-06T11:51:38.312Z,29.60
2022-09-06T11:54:27.491Z,30.30
2022-09-06T11:57:00.841Z,31.30
2022-09-06T11:59:37.214Z,32.10
2022-09-06T12:02:07.465Z,32.40
2022-09-06T12:05:10.417Z,32.60
2022-09-06T12:08:02.045Z,32.40
2022-09-06T12:10:57.157Z,32.40
2022-09-06T12:13:43.488Z,32.40
2022-09-06T12:16:13.031Z,32.30
2022-09-06T12:19:02.565Z,32.30
2022-09-06T12:21:52.406Z,32.40
2022-09-06T12:24:56.327Z,32.20
2022-09-06T12:27:26.870Z,32.30
2022-09-06T12:29:59.553Z,32.40
2022-09-06T12:32:34.880Z,32.70
2022-09-06T12:37:57.517Z,33.30
2022-09-06T12:40:30.567Z,33.50
2022-09-06T12:42:59.443Z,33.70
2022-09-06T12:45:28.037Z,33.80
2022-09-06T12:48:08.646Z,33.80
2022-09-06T12:50:37.473Z,33.80
2022-09-06T12:53:23.140Z,33.70
2022-09-06T12:56:05.471Z,33.60
2022-09-06T12:58:34.050Z,33.40
2022-09-06T13:01:09.952Z,33.00
2022-09-06T13:03:42.099Z,32.70
2022-09-06T13:06:22.225Z,32.30
2022-09-06T13:08:57.121Z,32.00
2022-09-06T13:11:30.795Z,31.80
2022-09-06T13:13:59.999Z,31.60
2022-09-06T13:16:31.345Z,31.40
2022-09-06T13:19:12.779Z,31.30
2022-09-06T13:21:43.427Z,31.10
2022-09-06T13:24:23.238Z,31.00
2022-09-06T13:26:53.685Z,30.80
2022-09-06T13:29:26.590Z,30.70
2022-09-06T13:31:57.061Z,30.60
2022-09-06T13:34:27.652Z,30.40
2022-09-06T13:37:01.048Z,30.30
2022-09-06T13:39:37.593Z,30.20
2022-09-06T13:42:09.649Z,30.20
2022-09-06T13:44:39.056Z,30.10
2022-09-06T13:47:07.781Z,29.90
2022-09-06T13:49:36.114Z,29.80
2022-09-06T13:52:05.676Z,29.50
2022-09-06T13:54:35.728Z,29.20
2022-09-06T13:57:04.333Z,28.90
2022-09-06T13:59:33.920Z,28.30
2022-09-06T14:02:05.009Z,28.00
2022-09-06T14:04:33.013Z,27.60
2022-09-06T14:07:01.730Z,27.20
2022-09-06T14:09:30.419Z,26.90
2022-09-06T14:12:33.534Z,26.80
2022-09-06T14:15:03.405Z,26.80
2022-09-06T14:17:32.928Z,26.80
2022-09-06T14:20:01.272Z,26.70
2022-09-06T14:22:29.685Z,26.70
2022-09-06T14:24:58.010Z,26.80
2022-09-06T14:27:26.430Z,26.80
2022-09-06T14:29:54.626Z,26.80
2022-09-06T14:32:25.722Z,26.90
2022-09-06T14:34:53.941Z,26.90
2022-09-06T14:37:22.792Z,26.70
2022-09-06T14:40:25.186Z,26.70
2022-09-06T14:42:53.579Z,26.60
2022-09-06T14:45:21.926Z,26.50
2022-09-06T14:47:51.700Z,26.50
2022-09-06T14:50:20.364Z,26.40
2022-09-06T14:52:48.762Z,26.30
2022-09-06T14:55:17.236Z,26.20
2022-09-06T14:57:45.881Z,26.00
2022-09-06T15:00:15.312Z,25.90
2022-09-06T15:02:44.160Z,25.70
2022-09-06T15:05:14.045Z,25.60
2022-09-06T15:07:42.526Z,25.50
2022-09-06T15:10:11.292Z,25.50
2022-09-06T15:12:39.682Z,25.50
2022-09-06T15:15:08.580Z,25.40
2022-09-06T15:17:37.263Z,25.40
2022-09-06T15:20:06.677Z,25.40
2022-09-06T15:22:36.661Z,25.40
2022-09-06T15:25:05.343Z,25.40
2022-09-06T15:27:33.713Z,25.30
2022-09-06T15:30:02.060Z,25.30
2022-09-06T15:32:30.597Z,25.30
2022-09-06T15:35:04.260Z,25.30
2022-09-06T15:37:33.061Z,25.20
2022-09-06T15:40:03.079Z,25.20
2022-09-06T15:42:31.901Z,25.10
2022-09-06T15:45:00.277Z,25.00
2022-09-06T15:47:29.169Z,24.90
2022-09-06T15:49:57.575Z,24.90
2022-09-06T15:52:25.987Z,24.80
2022-09-06T15:55:11.477Z,24.70
2022-09-06T15:57:41.257Z,24.70
2022-09-06T16:00:11.795Z,24.70
2022-09-06T16:02:40.201Z,24.60
2022-09-06T16:05:09.341Z,24.70
2022-09-06T16:07:41.077Z,24.80
2022-09-06T16:10:11.592Z,24.90
2022-09-06T16:12:41.611Z,25.00
2022-09-06T16:15:10.657Z,25.10
2022-09-06T16:17:39.120Z,25.20
2022-09-06T16:20:08.282Z,25.20
2022-09-06T16:22:36.707Z,25.20
2022-09-06T16:25:05.539Z,25.20
2022-09-06T16:27:34.008Z,25.20
2022-09-06T16:30:03.768Z,25.30
2022-09-06T16:32:32.368Z,25.20
2022-09-06T16:35:01.329Z,25.20
2022-09-06T16:37:29.675Z,25.30
2022-09-06T16:39:58.139Z,25.30
2022-09-06T16:42:26.554Z,25.40
2022-09-06T16:44:55.144Z,25.50
2022-09-06T16:47:24.985Z,25.50
2022-09-06T16:49:53.350Z,25.40
2022-09-06T16:52:21.758Z,25.30
2022-09-06T16:54:50.310Z,25.30
2022-09-06T16:57:19.062Z,25.20
2022-09-06T16:59:48.634Z,25.20
2022-09-06T17:02:18.196Z,25.10
2022-09-06T17:04:48.024Z,25.00
2022-09-06T17:07:16.380Z,24.90
2022-09-06T17:09:44.760Z,24.70
2022-09-06T17:12:13.164Z,24.70
2022-09-06T17:14:41.531Z,24.50
2022-09-06T17:17:10.022Z,24.40
2022-09-06T17:19:40.292Z,24.30
2022-09-06T17:22:11.268Z,24.20
2022-09-06T17:24:40.711Z,24.00
2022-09-06T17:27:09.761Z,23.90
2022-09-06T17:29:40.007Z,23.90
2022-09-06T17:32:10.499Z,23.70
2022-09-06T17:34:39.488Z,23.60
2022-09-06T17:37:09.668Z,23.50
2022-09-06T17:39:38.608Z,23.40
2022-09-06T17:42:07.759Z,23.30
2022-09-06T17:44:36.261Z,23.30
2022-09-06T17:47:13.933Z,23.20
2022-09-06T17:49:42.648Z,23.10
2022-09-06T17:52:13.729Z,23.00
2022-09-06T17:54:42.135Z,22.90
2022-09-06T17:57:10.503Z,22.70
2022-09-06T17:59:39.579Z,22.60
2022-09-06T18:02:08.891Z,22.60
2022-09-06T18:04:37.465Z,22.50
2022-09-06T18:07:06.038Z,22.50
2022-09-06T18:09:36.999Z,22.40
2022-09-06T18:12:06.866Z,22.30
2022-09-06T18:14:35.350Z,22.20
2022-09-06T18:17:03.697Z,22.20
2022-09-06T18:19:32.281Z,22.10
2022-09-06T18:22:00.653Z,22.00
2022-09-06T18:24:29.120Z,22.00
2022-09-06T18:26:58.888Z,21.90
2022-09-06T18:29:27.230Z,21.80
2022-09-06T18:31:57.219Z,21.70
2022-09-06T18:34:25.652Z,21.60
2022-09-06T18:36:54.218Z,21.50
2022-09-06T18:39:22.835Z,21.30
2022-09-06T18:42:07.114Z,21.30
2022-09-06T18:44:37.582Z,21.30
2022-09-06T18:47:07.698Z,21.20
2022-09-06T18:49:40.587Z,21.20
2022-09-06T18:52:11.804Z,21.10
2022-09-06T18:54:40.201Z,21.10
2022-09-06T18:57:08.782Z,21.00
2022-09-06T18:59:38.613Z,20.90
2022-09-06T19:02:07.532Z,20.90
2022-09-06T19:04:36.036Z,20.80
2022-09-06T19:07:04.846Z,20.70
2022-09-06T19:09:33.290Z,20.70
2022-09-06T19:12:01.730Z,20.80
2022-09-06T19:14:30.196Z,20.70
2022-09-06T19:17:00.006Z,20.70
2022-09-06T19:19:28.698Z,20.70
2022-09-06T19:21:57.076Z,20.60
2022-09-06T19:24:25.751Z,20.60
2022-09-06T19:26:55.297Z,20.60
2022-09-06T19:29:23.858Z,20.60
2022-09-06T19:31:53.076Z,20.60
2022-09-06T19:34:23.277Z,20.50
2022-09-06T19:36:55.318Z,20.40
2022-09-06T19:39:32.260Z,20.40
2022-09-06T19:42:03.557Z,20.20
2022-09-06T19:44:32.691Z,20.20
2022-09-06T19:47:01.219Z,20.20
2022-09-06T19:49:31.165Z,20.20
2022-09-06T19:51:59.590Z,20.20
2022-09-06T19:54:28.232Z,20.30
2022-09-06T19:56:56.744Z,20.30
2022-09-06T19:59:25.262Z,20.40
2022-09-06T20:01:53.783Z,20.30
2022-09-06T20:04:22.388Z,20.40
2022-09-06T20:06:52.415Z,20.40
2022-09-06T20:09:20.993Z,20.30
2022-09-06T20:11:49.717Z,20.30
2022-09-06T20:14:19.216Z,20.30
2022-09-06T20:16:49.094Z,20.30
2022-09-06T20:19:19.845Z,20.30
2022-09-06T20:21:49.191Z,20.30
2022-09-06T20:24:20.530Z,20.30
2022-09-06T20:26:50.112Z,20.30
2022-09-06T20:29:18.736Z,20.40
2022-09-06T20:31:47.258Z,20.40
2022-09-06T20:34:19.777Z,20.30
2022-09-06T20:36:48.760Z,20.30
2022-09-06T20:39:26.978Z,20.30
2022-09-06T20:41:55.523Z,20.20
2022-09-06T20:44:24.383Z,20.20
2022-09-06T20:46:52.847Z,20.20
2022-09-06T20:49:23.153Z,20.20
2022-09-06T20:51:51.542Z,20.20
2022-09-06T20:54:21.426Z,20.20
2022-09-06T20:56:50.582Z,20.10
2022-09-06T20:59:19.037Z,20.00
2022-09-06T21:01:48.191Z,19.90
2022-09-06T21:04:18.076Z,19.90
2022-09-06T21:06:47.134Z,19.80
2022-09-06T21:09:16.672Z,19.80
2022-09-06T21:11:47.779Z,19.80
2022-09-06T21:14:16.270Z,19.60
2022-09-06T21:16:45.003Z,19.60
2022-09-06T21:19:13.960Z,19.50
2022-09-06T21:21:42.851Z,19.50
2022-09-06T21:24:12.250Z,19.40
2022-09-06T21:26:41.088Z,19.40
2022-09-06T21:29:11.634Z,19.40
2022-09-06T21:31:40.183Z,19.40
2022-09-06T21:34:17.042Z,19.40
2022-09-06T21:36:46.153Z,19.30
2022-09-06T21:39:15.027Z,19.20
2022-09-06T21:41:45.813Z,19.20
2022-09-06T21:44:15.963Z,19.20
2022-09-06T21:46:44.636Z,19.20
2022-09-06T21:49:14.870Z,19.20
2022-09-06T21:51:43.906Z,19.20
2022-09-06T21:54:12.453Z,19.30
2022-09-06T21:56:41.393Z,19.30
2022-09-06T21:59:10.974Z,19.30
2022-09-06T22:01:44.013Z,19.30
2022-09-06T22:04:14.135Z,19.40
2022-09-06T22:06:42.593Z,19.40
2022-09-06T22:09:15.694Z,19.40
2022-09-06T22:11:45.611Z,19.40
2022-09-06T22:14:15.302Z,19.40
2022-09-06T22:16:45.610Z,19.40
2022-09-06T22:19:14.311Z,19.40
2022-09-06T22:21:42.739Z,19.40
2022-09-06T22:24:12.711Z,19.40
2022-09-06T22:26:42.510Z,19.40
2022-09-06T22:29:13.636Z,19.50
2022-09-06T22:31:42.664Z,19.50
2022-09-06T22:34:12.729Z,19.40
2022-09-06T22:36:41.291Z,19.40
2022-09-06T22:39:10.150Z,19.40
2022-09-06T22:41:38.955Z,19.50
2022-09-06T22:44:07.404Z,19.50
2022-09-06T22:46:37.133Z,19.50
2022-09-06T22:49:05.661Z,19.50
2022-09-06T22:51:35.584Z,19.50
2022-09-06T22:54:04.633Z,19.40
2022-09-06T22:56:33.586Z,19.40
2022-09-06T22:59:01.990Z,19.40
2022-09-06T23:01:32.719Z,19.40
2022-09-06T23:04:01.331Z,19.40
2022-09-06T23:06:29.738Z,19.40
2022-09-06T23:09:00.037Z,19.40
2022-09-06T23:11:28.847Z,19.40
2022-09-06T23:13:57.917Z,19.30
2022-09-06T23:16:27.406Z,19.30
2022-09-06T23:18:57.354Z,19.30
2022-09-06T23:21:26.915Z,19.20
2022-09-06T23:23:58.340Z,19.20
2022-09-06T23:26:28.783Z,19.10
2022-09-06T23:28:57.634Z,19.10
2022-09-06T23:31:27.410Z,19.00
2022-09-06T23:33:57.071Z,19.20
2022-09-06T23:36:26.323Z,19.20
2022-09-06T23:38:56.189Z,19.20
2022-09-06T23:41:26.219Z,19.20
2022-09-06T23:43:54.709Z,19.10
2022-09-06T23:46:23.517Z,19.00
2022-09-06T23:48:52.083Z,19.00
2022-09-06T23:51:20.802Z,18.90
2022-09-06T23:53:49.345Z,18.90
2022-09-06T23:56:17.776Z,18.90
2022-09-06T23:58:47.940Z,18.90
